Time;durP1;ratioP1;P1;durP2;ratioP2;P2;SDS_P1;SDS_P2;PMS_P1;PMS_P2;Temp;Humidity;BMP_temperature;BMP_pressure;BME280_temperature;BME280_humidity;BME280_pressure;Samples;Min_cycle;Max_cycle;Signal;HPM_P1;HPM_P2
2022/06/03 00:01:35;;;;;;;10.73;4.72;;;;;;;23.42;55.80;100506.66;2093543;28;20052;-71
2022/06/03 00:03:21;;;;;;;14.30;5.35;;;;;;;23.43;55.73;100508.41;2103265;28;20036;-71
2022/06/03 00:05:07;;;;;;;12.13;5.03;;;;;;;23.41;55.67;100508.47;2103422;28;20610;-72
2022/06/03 00:06:53;;;;;;;10.65;4.70;;;;;;;23.39;55.70;100510.31;2105943;28;20054;-71
2022/06/03 00:08:35;;;;;;;10.85;4.75;;;;;;;23.38;55.78;100508.56;2094862;28;20041;-71
2022/06/03 00:10:19;;;;;;;14.82;4.82;;;;;;;23.37;55.85;100508.63;2103141;28;20117;-72
2022/06/03 00:12:11;;;;;;;15.48;5.05;;;;;;;23.36;56.05;100502.38;2101398;28;20050;-71
2022/06/03 00:14:03;;;;;;;15.80;4.43;;;;;;;23.35;55.96;100492.53;2097224;28;20493;-71
2022/06/03 00:15:54;;;;;;;12.43;4.50;;;;;;;23.31;56.12;100496.28;2094714;28;20098;-71
2022/06/03 00:17:48;;;;;;;14.20;4.53;;;;;;;23.29;56.17;100492.81;2086577;28;20060;-71
2022/06/03 00:19:26;;;;;;;12.13;3.85;;;;;;;23.29;56.20;100487.41;2064822;28;20114;-71
2022/06/03 00:21:02;;;;;;;18.08;4.95;;;;;;;23.30;56.26;100499.06;2101616;28;20056;-71
2022/06/03 00:23:04;;;;;;;15.13;4.72;;;;;;;23.30;56.29;100493.69;2102959;28;20151;-71
2022/06/03 00:24:38;;;;;;;11.38;4.57;;;;;;;23.28;56.46;100495.56;2102943;28;20048;-71
2022/06/03 00:26:19;;;;;;;12.35;4.75;;;;;;;23.30;56.36;100507.16;2086076;28;20073;-72
2022/06/03 00:27:56;;;;;;;11.48;4.38;;;;;;;23.30;56.30;100505.31;2094635;28;20068;-71
2022/06/03 00:29:52;;;;;;;12.18;5.60;;;;;;;23.29;56.30;100510.78;2085913;28;20045;-71
2022/06/03 00:31:33;;;;;;;13.10;4.15;;;;;;;23.26;56.41;100497.41;2095189;28;20098;-71
2022/06/03 00:33:06;;;;;;;17.80;5.28;;;;;;;23.23;56.40;100500.25;2089664;28;20084;-71
2022/06/03 00:34:51;;;;;;;14.68;4.53;;;;;;;23.22;56.50;100507.47;2093572;28;20044;-71
2022/06/03 00:36:33;;;;;;;9.85;4.50;;;;;;;23.19;56.50;100501.31;2094158;28;20056;-72
2022/06/03 00:37:59;;;;;;;17.08;5.00;;;;;;;23.16;56.67;100513.09;2089184;28;20065;-71
2022/06/03 00:39:54;;;;;;;14.05;4.28;;;;;;;23.16;56.71;100512.22;2078697;28;20072;-71
2022/06/03 00:41:32;;;;;;;12.70;4.38;;;;;;;23.15;56.72;100500.56;2088953;28;20056;-71
2022/06/03 00:43:20;;;;;;;11.48;4.45;;;;;;;23.14;56.64;100504.19;2080003;28;20156;-71
2022/06/03 00:45:08;;;;;;;10.77;6.18;;;;;;;23.12;56.69;100495.28;2077076;28;20053;-71
2022/06/03 00:47:02;;;;;;;14.60;5.40;;;;;;;23.09;56.76;100502.63;2080899;28;20596;-70
2022/06/03 00:48:42;;;;;;;13.50;5.25;;;;;;;23.07;56.79;100499.09;2089226;28;20064;-71
2022/06/03 00:50:26;;;;;;;11.10;4.50;;;;;;;23.05;56.80;100502.72;2089784;28;20045;-71
2022/06/03 00:52:21;;;;;;;13.68;4.55;;;;;;;23.05;56.93;100500.03;2096916;28;20049;-71
2022/06/03 00:54:02;;;;;;;11.63;4.68;;;;;;;23.07;56.75;100496.41;2096311;28;20051;-71
2022/06/03 00:56:09;;;;;;;14.35;4.43;;;;;;;23.03;56.77;100501.94;2085909;28;20054;-71
2022/06/03 00:58:01;;;;;;;15.35;5.85;;;;;;;23.01;56.84;100503.81;2072067;28;20038;-71
2022/06/03 00:59:40;;;;;;;11.05;4.07;;;;;;;23.02;56.76;100499.31;2068527;28;20050;-72
2022/06/03 01:01:11;;;;;;;15.25;4.72;;;;;;;23.03;56.78;100499.25;2080416;28;20081;-72
2022/06/03 01:03:03;;;;;;;12.55;5.95;;;;;;;23.04;56.67;100492.00;2086361;28;20118;-71
2022/06/03 01:04:43;;;;;;;15.48;4.38;;;;;;;23.03;56.59;100501.06;2089008;28;20079;-71
2022/06/03 01:06:22;;;;;;;15.38;5.70;;;;;;;23.07;56.68;100499.09;2104201;28;20082;-71
2022/06/03 01:07:55;;;;;;;10.60;3.92;;;;;;;23.10;56.53;100491.78;2087031;28;20065;-71
2022/06/03 01:09:42;;;;;;;11.23;4.50;;;;;;;23.13;56.48;100491.66;2103212;28;20047;-71
2022/06/03 01:11:18;;;;;;;12.13;4.55;;;;;;;23.19;56.31;100496.78;2088984;28;20670;-71
2022/06/03 01:13:12;;;;;;;15.38;4.70;;;;;;;23.25;56.21;100484.88;2094542;28;20599;-71
2022/06/03 01:14:50;;;;;;;18.13;4.70;;;;;;;23.25;55.91;100491.16;2088702;28;20110;-71
2022/06/03 01:16:27;;;;;;;13.60;4.20;;;;;;;23.23;56.02;100484.09;2089807;28;20495;-72
2022/06/03 01:18:04;;;;;;;12.80;5.13;;;;;;;23.18;56.12;100491.47;2087864;28;20079;-71
2022/06/03 01:19:55;;;;;;;18.83;4.55;;;;;;;23.16;56.22;100479.91;2088252;28;20152;-71
2022/06/03 01:21:36;;;;;;;13.35;4.50;;;;;;;23.13;56.32;100482.69;2095688;28;20044;-71
2022/06/03 01:23:26;;;;;;;12.65;4.55;;;;;;;23.13;56.20;100478.19;2105343;28;20052;-71
2022/06/03 01:25:07;;;;;;;13.73;4.55;;;;;;;23.12;56.23;100480.94;2088528;28;20037;-71
2022/06/03 01:27:00;;;;;;;12.13;4.57;;;;;;;23.12;56.20;100486.31;2096413;28;20041;-71
2022/06/03 01:28:53;;;;;;;16.50;4.30;;;;;;;23.12;56.29;100480.94;2088784;28;20052;-71
2022/06/03 01:30:27;;;;;;;10.88;3.83;;;;;;;23.11;56.18;100471.09;2080656;28;20111;-71
2022/06/03 01:32:24;;;;;;;11.82;5.28;;;;;;;23.11;56.21;100479.19;2078668;28;20072;-71
2022/06/03 01:34:03;;;;;;;8.82;4.32;;;;;;;23.09;56.10;100467.63;2088575;28;20052;-70
2022/06/03 01:36:03;;;;;;;13.02;4.45;;;;;;;23.09;56.22;100475.69;2091110;28;20506;-71
2022/06/03 01:37:30;;;;;;;13.80;5.57;;;;;;;23.12;56.03;100468.34;2088640;28;20049;-71
2022/06/03 01:39:19;;;;;;;15.23;4.47;;;;;;;23.13;55.91;100474.63;2078567;28;20157;-71
2022/06/03 01:41:00;;;;;;;10.65;4.65;;;;;;;23.13;55.87;100459.34;2086525;28;20048;-71
2022/06/03 01:42:58;;;;;;;13.00;5.07;;;;;;;23.13;55.86;100455.75;2080430;28;20080;-71
2022/06/03 01:44:48;;;;;;;14.50;5.53;;;;;;;23.12;55.83;100457.56;2094397;28;20548;-71
2022/06/03 01:46:26;;;;;;;9.80;4.28;;;;;;;23.08;55.85;100464.03;2096849;28;20070;-73
2022/06/03 01:48:28;;;;;;;12.35;4.22;;;;;;;23.05;55.97;100475.81;2103662;28;20066;-71
2022/06/03 01:50:19;;;;;;;16.20;5.00;;;;;;;23.08;55.95;100460.47;2095473;28;20055;-71
2022/06/03 01:52:08;;;;;;;16.45;5.03;;;;;;;23.09;55.88;100459.53;2092068;28;20191;-71
2022/06/03 01:54:03;;;;;;;13.30;4.75;;;;;;;23.08;55.89;100461.34;2095802;28;20040;-71
2022/06/03 01:56:00;;;;;;;14.38;4.20;;;;;;;23.07;55.83;100456.91;2095274;28;20616;-71
2022/06/03 01:57:47;;;;;;;11.43;4.75;;;;;;;23.08;55.87;100463.16;2080320;28;20474;-71
2022/06/03 01:59:39;;;;;;;11.85;3.95;;;;;;;23.04;55.90;100468.66;2088574;28;20055;-71
2022/06/03 02:01:22;;;;;;;16.05;4.40;;;;;;;23.02;55.94;100470.56;2095435;28;20727;-71
2022/06/03 02:03:10;;;;;;;13.18;3.97;;;;;;;23.03;56.00;100476.81;2087871;28;20484;-71
2022/06/03 02:04:49;;;;;;;13.85;4.60;;;;;;;23.02;56.11;100472.38;2093598;28;20036;-71
2022/06/03 02:06:50;;;;;;;17.40;4.63;;;;;;;22.99;56.10;100472.47;2100157;28;20044;-71
2022/06/03 02:08:43;;;;;;;19.45;5.88;;;;;;;22.98;56.17;100487.75;2096559;28;20546;-71
2022/06/03 02:10:38;;;;;;;25.48;5.45;;;;;;;22.96;56.25;100480.69;2086031;28;20077;-71
2022/06/03 02:12:39;;;;;;;10.35;4.30;;;;;;;22.97;56.03;100494.06;2088536;28;20469;-71
2022/06/03 02:14:38;;;;;;;14.10;4.38;;;;;;;22.95;56.19;100487.91;2088976;28;20135;-71
2022/06/03 02:16:33;;;;;;;11.25;4.25;;;;;;;22.95;56.18;100495.97;2064350;28;20088;-71
2022/06/03 02:18:33;;;;;;;13.07;4.68;;;;;;;22.93;56.16;100507.72;2080192;28;20084;-71
2022/06/03 02:20:37;;;;;;;15.93;4.40;;;;;;;22.90;56.30;100508.75;2087497;28;20072;-71
2022/06/03 02:22:31;;;;;;;9.90;4.10;;;;;;;22.91;56.28;100512.28;2096677;28;20044;-71
2022/06/03 02:24:33;;;;;;;12.95;4.38;;;;;;;22.95;56.25;100511.25;2088399;28;20079;-72
2022/06/03 02:26:23;;;;;;;15.60;4.63;;;;;;;23.00;56.11;100506.56;2096044;28;20535;-71
2022/06/03 02:28:14;;;;;;;12.02;4.80;;;;;;;23.08;56.07;100503.56;2088074;28;20040;-71
2022/06/03 02:30:26;;;;;;;13.73;5.57;;;;;;;23.16;55.92;100506.84;2095057;28;20799;-71
2022/06/03 02:32:04;;;;;;;15.93;4.68;;;;;;;23.22;55.69;100514.66;2049725;28;20048;-71
2022/06/03 02:33:52;;;;;;;13.60;4.78;;;;;;;23.26;55.70;100513.59;2095136;28;20079;-71
2022/06/03 02:35:42;;;;;;;11.02;4.80;;;;;;;23.25;55.65;100519.91;2088189;28;20049;-71
2022/06/03 02:37:50;;;;;;;17.58;4.38;;;;;;;23.23;55.79;100527.19;2087947;28;20400;-71
2022/06/03 02:39:44;;;;;;;9.25;3.42;;;;;;;23.22;55.74;100528.13;2088979;28;20052;-71
2022/06/03 02:41:54;;;;;;;13.07;3.63;;;;;;;23.23;55.87;100536.16;2094444;28;20139;-72
2022/06/03 02:43:39;;;;;;;11.57;3.67;;;;;;;23.22;56.00;100549.69;2059261;28;20072;-71
2022/06/03 02:45:25;;;;;;;16.33;4.63;;;;;;;23.21;55.96;100554.19;2065234;28;20392;-71
2022/06/03 02:47:11;;;;;;;13.60;4.25;;;;;;;23.20;56.18;100555.13;2079726;28;20161;-71
2022/06/03 02:49:17;;;;;;;11.85;4.10;;;;;;;23.22;56.25;100566.72;2083434;28;20072;-71
2022/06/03 02:50:54;;;;;;;14.35;5.38;;;;;;;23.23;56.23;100563.09;2085804;28;20081;-71
2022/06/03 02:52:50;;;;;;;13.38;4.07;;;;;;;23.26;56.30;100562.97;2088127;28;20048;-71
2022/06/03 02:54:36;;;;;;;11.48;4.90;;;;;;;23.32;56.21;100567.22;2088303;28;20088;-70
2022/06/03 02:56:23;;;;;;;15.48;4.82;;;;;;;23.32;56.33;100568.09;2090514;28;20152;-74
2022/06/03 02:58:13;;;;;;;11.68;4.10;;;;;;;23.31;56.33;100570.84;2103175;28;20035;-71
2022/06/03 02:59:53;;;;;;;10.63;4.10;;;;;;;23.32;56.41;100578.00;2096399;28;20060;-71
2022/06/03 03:01:44;;;;;;;14.93;4.43;;;;;;;23.35;56.44;100580.59;2096723;28;20112;-71
2022/06/03 03:03:45;;;;;;;11.95;3.72;;;;;;;23.33;56.59;100582.44;2096408;28;20161;-71
2022/06/03 03:05:21;;;;;;;16.90;4.97;;;;;;;23.33;56.66;100583.31;2082252;28;20063;-71
2022/06/03 03:07:05;;;;;;;16.85;4.63;;;;;;;23.34;56.81;100586.91;2087483;28;20055;-71
2022/06/03 03:08:51;;;;;;;18.40;4.70;;;;;;;23.36;56.70;100567.06;2096446;28;20396;-70
2022/06/03 03:10:29;;;;;;;11.10;3.88;;;;;;;23.40;56.87;100579.44;2096733;28;20417;-71
2022/06/03 03:12:34;;;;;;;15.27;4.75;;;;;;;23.44;56.84;100575.69;2079442;28;20033;-71
2022/06/03 03:14:39;;;;;;;12.35;3.80;;;;;;;23.49;56.86;100580.06;2096353;28;20049;-70
2022/06/03 03:16:31;;;;;;;10.73;5.00;;;;;;;23.53;56.83;100581.69;2052808;28;20217;-72
2022/06/03 03:18:28;;;;;;;13.07;4.53;;;;;;;23.57;56.80;100588.69;2060625;28;20051;-71
2022/06/03 03:20:21;;;;;;;11.98;4.13;;;;;;;23.63;56.73;100583.09;2077376;28;20056;-72
2022/06/03 03:22:13;;;;;;;14.90;4.18;;;;;;;23.67;56.90;100590.09;2085605;28;20607;-72
2022/06/03 03:24:13;;;;;;;10.27;4.53;;;;;;;23.71;56.78;100589.88;2079775;28;20089;-71
2022/06/03 03:25:50;;;;;;;19.58;5.53;;;;;;;23.76;56.61;100585.16;2087480;28;20175;-72
2022/06/03 03:27:27;;;;;;;15.77;4.30;;;;;;;23.82;56.55;100598.44;2095726;28;20072;-72
2022/06/03 03:29:09;;;;;;;12.52;4.30;;;;;;;23.87;56.52;100591.97;2094712;28;20109;-72
2022/06/03 03:30:38;;;;;;;12.38;4.68;;;;;;;23.92;56.42;100595.34;2087938;28;20136;-72
2022/06/03 03:32:35;;;;;;;17.48;4.15;;;;;;;23.97;56.25;100588.78;2094418;28;20409;-72
2022/06/03 03:34:10;;;;;;;15.38;4.97;;;;;;;24.04;56.17;100590.28;2088141;28;20049;-71
2022/06/03 03:36:20;;;;;;;11.50;3.85;;;;;;;24.10;56.11;100581.94;2085000;28;20041;-72
2022/06/03 03:38:18;;;;;;;13.98;3.83;;;;;;;24.17;55.88;100591.53;2079863;28;20421;-72
2022/06/03 03:40:20;;;;;;;14.65;5.25;;;;;;;24.26;55.84;100584.91;2087855;28;20079;-72
2022/06/03 03:42:15;;;;;;;10.57;3.58;;;;;;;24.33;55.49;100580.09;2068867;28;20040;-72
2022/06/03 03:44:08;;;;;;;15.05;4.30;;;;;;;24.42;55.22;100588.66;2088112;28;20053;-73
2022/06/03 03:46:23;;;;;;;10.02;4.03;;;;;;;24.53;55.07;100582.81;2088188;28;20131;-71
2022/06/03 03:48:34;;;;;;;15.13;3.97;;;;;;;24.67;54.70;100572.25;2088116;28;20053;-72
2022/06/03 03:50:32;;;;;;;14.70;3.85;;;;;;;24.81;54.47;100577.03;2053896;28;20145;-71
2022/06/03 03:52:24;;;;;;;13.73;3.47;;;;;;;24.90;53.95;100573.91;2073715;28;20044;-72
2022/06/03 03:54:14;;;;;;;10.18;4.07;;;;;;;24.98;53.66;100571.75;2095937;28;20120;-71
2022/06/03 03:56:07;;;;;;;9.93;3.28;;;;;;;25.06;53.66;100574.97;2087675;28;20400;-72
2022/06/03 03:57:59;;;;;;;12.75;4.00;;;;;;;25.16;53.32;100576.28;2087991;28;20053;-72
2022/06/03 03:59:54;;;;;;;15.57;3.88;;;;;;;25.27;53.20;100576.63;2088005;28;20091;-72
2022/06/03 04:01:42;;;;;;;9.73;3.78;;;;;;;25.42;52.95;100575.91;2102813;28;20048;-72
2022/06/03 04:03:29;;;;;;;16.70;3.90;;;;;;;25.57;52.81;100573.41;2088194;28;20045;-72
2022/06/03 04:05:32;;;;;;;11.77;3.92;;;;;;;25.69;52.37;100562.88;2080985;28;20091;-72
2022/06/03 04:07:22;;;;;;;11.10;3.90;;;;;;;25.85;52.07;100557.59;2054336;28;20463;-72
2022/06/03 04:09:07;;;;;;;7.75;2.92;;;;;;;25.97;52.13;100551.53;2079089;28;20045;-71
2022/06/03 04:11:05;;;;;;;13.02;3.58;;;;;;;26.12;51.79;100541.75;2083983;28;20049;-71
2022/06/03 04:12:53;;;;;;;13.00;5.63;;;;;;;26.27;51.34;100542.81;2069966;28;20077;-71
2022/06/03 04:15:02;;;;;;;11.45;3.13;;;;;;;26.46;51.28;100551.69;2104791;28;20249;-71
2022/06/03 04:17:13;;;;;;;11.60;3.80;;;;;;;26.67;50.70;100558.69;2088822;28;20098;-71
2022/06/03 04:19:00;;;;;;;12.95;3.47;;;;;;;26.87;50.69;100553.03;2086394;28;20048;-72
2022/06/03 04:20:53;;;;;;;10.98;3.63;;;;;;;27.04;50.04;100563.00;2087339;28;20707;-71
2022/06/03 04:22:48;;;;;;;18.55;3.63;;;;;;;27.19;49.64;100563.94;2095780;28;20044;-71
2022/06/03 04:24:49;;;;;;;14.60;4.93;;;;;;;27.37;49.18;100573.78;2084706;28;20041;-71
2022/06/03 04:26:51;;;;;;;12.80;3.92;;;;;;;27.53;48.50;100582.81;2090954;28;20112;-72
2022/06/03 04:28:43;;;;;;;14.55;3.67;;;;;;;27.65;48.16;100575.78;2081073;28;20124;-72
2022/06/03 04:30:45;;;;;;;10.45;4.00;;;;;;;27.84;47.97;100575.59;2090602;28;20098;-72
2022/06/03 04:32:49;;;;;;;13.73;3.15;;;;;;;28.10;47.12;100573.06;2089294;28;20144;-72
2022/06/03 04:34:42;;;;;;;11.57;3.60;;;;;;;28.32;46.83;100579.97;2081223;28;20081;-72
2022/06/03 04:36:50;;;;;;;13.00;3.45;;;;;;;28.51;46.14;100589.63;2093306;28;20484;-71
2022/06/03 04:38:54;;;;;;;8.52;3.53;;;;;;;28.70;45.61;100589.34;2096252;28;20076;-72
2022/06/03 04:40:58;;;;;;;13.25;3.80;;;;;;;28.95;44.87;100585.97;2060770;28;20596;-72
2022/06/03 04:43:09;;;;;;;14.02;3.45;;;;;;;29.27;44.48;100595.69;2100471;28;20076;-72
2022/06/03 04:45:04;;;;;;;14.77;4.03;;;;;;;29.61;43.94;100583.50;2097531;28;20107;-72
2022/06/03 04:47:16;;;;;;;13.23;4.05;;;;;;;29.91;43.29;100569.69;2081067;28;20053;-71
2022/06/03 04:49:12;;;;;;;11.45;3.85;;;;;;;30.23;42.44;100585.72;2095196;28;20093;-72
2022/06/03 04:51:22;;;;;;;12.15;3.60;;;;;;;30.47;42.11;100576.69;2088753;28;20519;-72
2022/06/03 04:53:26;;;;;;;13.05;3.70;;;;;;;30.76;41.25;100580.13;2072261;28;20068;-72
2022/06/03 04:55:22;;;;;;;13.77;3.25;;;;;;;31.03;40.45;100587.31;2047083;29;20055;-72
2022/06/03 04:57:30;;;;;;;12.15;3.83;;;;;;;31.16;40.34;100582.75;2050753;28;20158;-72
2022/06/03 04:59:56;;;;;;;13.55;3.08;;;;;;;31.33;39.61;100576.03;2089251;28;20040;-71
2022/06/03 05:01:51;;;;;;;11.55;3.55;;;;;;;31.62;39.21;100585.72;2075452;28;20037;-71
2022/06/03 05:04:10;;;;;;;12.15;3.28;;;;;;;31.90;38.59;100581.78;2088369;28;20561;-71
2022/06/03 05:06:16;;;;;;;15.43;3.30;;;;;;;32.20;38.32;100581.31;2064059;28;20077;-71
2022/06/03 05:08:16;;;;;;;11.80;3.67;;;;;;;32.50;37.73;100584.38;2089410;28;20049;-71
2022/06/03 05:10:11;;;;;;;11.48;3.30;;;;;;;32.80;37.10;100589.31;2097495;28;20090;-71
2022/06/03 05:12:12;;;;;;;11.50;3.47;;;;;;;32.86;36.51;100597.03;2090355;28;20146;-71
2022/06/03 05:14:10;;;;;;;11.25;3.38;;;;;;;32.88;36.44;100585.97;2081161;28;20050;-71
2022/06/03 05:16:14;;;;;;;9.65;3.10;;;;;;;32.95;35.88;100588.06;2078590;28;20209;-71
2022/06/03 05:18:09;;;;;;;12.57;2.85;;;;;;;32.96;35.93;100592.56;2080710;28;20337;-71
2022/06/03 05:20:05;;;;;;;9.10;3.20;;;;;;;33.17;35.47;100595.44;2075275;28;20064;-71
2022/06/03 05:21:53;;;;;;;10.55;2.95;;;;;;;33.27;35.18;100590.13;2096847;28;20048;-72
2022/06/03 05:23:39;;;;;;;13.55;3.10;;;;;;;33.31;34.97;100597.06;2097569;28;20435;-71
2022/06/03 05:25:29;;;;;;;11.18;3.10;;;;;;;33.44;35.08;100589.59;2088296;28;20541;-71
2022/06/03 05:27:31;;;;;;;9.40;2.90;;;;;;;33.52;35.10;100598.06;2098459;28;20047;-71
2022/06/03 05:29:25;;;;;;;12.50;3.35;;;;;;;33.63;34.65;100598.03;2097211;28;20089;-72
2022/06/03 05:31:22;;;;;;;12.18;3.33;;;;;;;33.76;34.49;100601.50;2089096;28;20045;-71
2022/06/03 05:33:23;;;;;;;7.55;2.92;;;;;;;33.94;33.81;100597.22;2097245;28;20064;-71
2022/06/03 05:35:07;;;;;;;9.45;2.88;;;;;;;34.11;33.86;100601.28;2080522;28;20087;-71
2022/06/03 05:36:50;;;;;;;11.50;2.90;;;;;;;34.27;33.54;100598.09;2097328;28;20072;-71
2022/06/03 05:38:34;;;;;;;;;;;;;;;34.27;33.68;100606.34;2088511;28;20139;-71
2022/06/03 05:40:26;;;;;;;11.90;3.10;;;;;;;34.35;33.15;100609.28;2097053;28;19956;-71
2022/06/03 05:42:24;;;;;;;10.10;3.20;;;;;;;34.44;33.33;100614.00;2094660;28;20082;-71
2022/06/03 05:44:02;;;;;;;13.55;3.33;;;;;;;34.66;32.89;100607.50;2096939;28;20497;-70
2022/06/03 05:46:03;;;;;;;9.30;3.10;;;;;;;34.79;32.55;100617.28;2094865;28;20565;-72
2022/06/03 05:47:30;;;;;;;9.05;2.75;;;;;;;34.96;32.36;100613.06;2067365;28;20046;-71
2022/06/03 05:49:12;;;;;;;11.35;2.97;;;;;;;35.02;31.94;100609.78;2086789;28;20047;-71
2022/06/03 05:50:42;;;;;;;12.65;3.03;;;;;;;35.07;32.18;100609.34;2086980;28;20099;-71
2022/06/03 05:52:38;;;;;;;13.80;4.68;;;;;;;34.99;31.82;100607.28;2088270;28;20048;-71
2022/06/03 05:54:13;;;;;;;10.55;3.10;;;;;;;34.93;32.25;100616.06;2065540;28;20121;-72
2022/06/03 05:55:46;;;;;;;11.00;3.30;;;;;;;34.86;32.33;100616.75;2079544;28;20140;-72
2022/06/03 05:57:27;;;;;;;14.20;3.00;;;;;;;34.77;32.13;100615.69;2094535;28;20064;-72
2022/06/03 05:58:56;;;;;;;23.15;4.78;;;;;;;34.79;32.31;100617.28;2088647;28;20052;-71
2022/06/03 06:00:44;;;;;;;12.38;3.10;;;;;;;34.98;32.34;100621.19;2094205;28;20738;-71
2022/06/03 06:02:18;;;;;;;11.93;2.88;;;;;;;35.22;32.04;100619.00;2089225;28;20155;-71
2022/06/03 06:03:49;;;;;;;11.45;3.13;;;;;;;35.30;31.80;100626.56;2095974;28;20072;-72
2022/06/03 06:05:27;;;;;;;7.22;3.03;;;;;;;35.34;31.62;100630.75;2094431;28;20071;-71
2022/06/03 06:07:02;;;;;;;28.23;3.90;;;;;;;35.22;31.69;100623.63;2101067;28;20045;-71
2022/06/03 06:08:32;;;;;;;8.70;2.42;;;;;;;35.27;31.86;100632.31;2104185;28;20079;-71
2022/06/03 06:10:06;;;;;;;7.30;2.67;;;;;;;35.35;32.13;100627.88;2089403;28;20045;-72
2022/06/03 06:11:40;;;;;;;9.73;2.65;;;;;;;35.16;31.78;100633.25;2094146;28;20497;-71
2022/06/03 06:13:21;;;;;;;11.55;3.28;;;;;;;34.87;32.39;100626.72;2093401;28;20072;-71
2022/06/03 06:15:02;;;;;;;10.70;3.00;;;;;;;34.87;32.22;100623.97;2087345;28;20045;-71
2022/06/03 06:16:32;;;;;;;15.27;3.05;;;;;;;34.71;32.53;100633.56;2085878;28;20323;-72
2022/06/03 06:18:11;;;;;;;9.48;2.80;;;;;;;34.72;32.59;100634.44;2088066;28;20054;-72
2022/06/03 06:19:44;;;;;;;13.80;3.20;;;;;;;34.67;32.78;100639.41;2072865;28;20049;-72
2022/06/03 06:21:14;;;;;;;10.65;2.75;;;;;;;34.59;32.86;100637.31;2083798;28;21716;-71
2022/06/03 06:22:41;;;;;;;13.15;2.95;;;;;;;34.52;32.90;100641.63;2096791;28;20063;-72
2022/06/03 06:24:13;;;;;;;13.48;3.88;;;;;;;34.46;33.22;100639.44;2085364;28;20041;-72
2022/06/03 06:25:41;;;;;;;11.73;2.88;;;;;;;34.57;33.41;100639.34;2096582;28;20175;-72
2022/06/03 06:27:39;;;;;;;10.23;3.80;;;;;;;34.83;33.22;100636.25;2086408;28;20045;-72
2022/06/03 06:29:20;;;;;;;12.02;3.22;;;;;;;34.93;33.09;100651.75;2088534;28;20048;-72
2022/06/03 06:31:03;;;;;;;13.25;3.38;;;;;;;34.62;33.61;100652.66;2096548;28;20131;-72
2022/06/03 06:32:49;;;;;;;17.02;3.88;;;;;;;34.33;34.25;100646.97;2090749;28;20048;-72
2022/06/03 06:34:26;;;;;;;12.70;2.70;;;;;;;34.25;34.62;100650.34;2095226;28;20044;-72
2022/06/03 06:36:13;;;;;;;13.10;3.80;;;;;;;34.26;34.89;100645.75;2089838;28;20549;-72
2022/06/03 06:38:03;;;;;;;14.43;2.92;;;;;;;34.36;34.94;100650.31;2097756;28;20131;-72
2022/06/03 06:39:52;;;;;;;11.85;2.92;;;;;;;34.37;34.76;100648.44;2088604;28;20068;-72
2022/06/03 06:41:37;;;;;;;10.77;2.92;;;;;;;34.31;34.66;100649.81;2086976;28;20051;-72
2022/06/03 06:43:11;;;;;;;13.07;3.28;;;;;;;34.42;34.59;100642.53;2088349;28;20049;-72
2022/06/03 06:44:36;;;;;;;17.77;3.15;;;;;;;34.55;34.76;100654.19;2094618;28;20106;-73
2022/06/03 06:46:08;;;;;;;8.15;2.63;;;;;;;34.75;34.41;100647.88;2094157;28;20135;-72
2022/06/03 06:47:36;;;;;;;11.55;2.83;;;;;;;34.56;34.14;100642.22;2085438;28;20040;-72
2022/06/03 06:49:15;;;;;;;11.65;3.20;;;;;;;34.45;34.40;100642.28;2091578;28;20531;-72
2022/06/03 06:50:47;;;;;;;11.93;3.13;;;;;;;34.55;34.23;100638.59;2093323;28;20067;-72
2022/06/03 06:52:30;;;;;;;10.70;2.72;;;;;;;34.40;33.93;100648.16;2097488;28;20186;-73
2022/06/03 06:53:59;;;;;;;13.85;3.20;;;;;;;34.18;33.64;100645.50;2090032;28;20075;-73
2022/06/03 06:55:30;;;;;;;13.05;2.83;;;;;;;34.12;33.61;100644.13;2094771;28;20068;-72
2022/06/03 06:57:00;;;;;;;9.27;2.97;;;;;;;33.96;33.63;100646.41;2093911;28;20097;-72
2022/06/03 06:58:31;;;;;;;10.52;2.83;;;;;;;34.09;33.33;100649.88;2094929;28;20527;-72
2022/06/03 07:00:00;;;;;;;12.98;3.38;;;;;;;34.20;33.12;100654.47;2089673;28;20041;-72
2022/06/03 07:01:26;;;;;;;10.20;2.72;;;;;;;34.25;33.04;100653.09;2100922;28;20104;-73
2022/06/03 07:02:53;;;;;;;12.63;2.80;;;;;;;34.30;33.08;100648.09;2094459;28;20051;-72
2022/06/03 07:04:23;;;;;;;12.48;3.53;;;;;;;34.45;32.92;100648.66;2092472;28;20056;-72
2022/06/03 07:05:54;;;;;;;11.77;2.60;;;;;;;34.46;32.72;100646.78;2085755;28;20488;-72
2022/06/03 07:07:25;;;;;;;12.43;3.30;;;;;;;34.44;32.53;100663.34;2093811;28;20116;-73
2022/06/03 07:08:53;;;;;;;14.02;4.60;;;;;;;34.40;32.29;100653.63;2088349;28;20650;-72
2022/06/03 07:10:24;;;;;;;10.60;2.53;;;;;;;34.35;32.05;100648.56;2079225;28;20195;-72
2022/06/03 07:11:52;;;;;;;9.20;2.85;;;;;;;34.37;32.05;100656.66;2087207;28;20625;-71
2022/06/03 07:13:20;;;;;;;9.18;2.55;;;;;;;34.51;31.98;100647.25;2087125;28;20087;-71
2022/06/03 07:14:55;;;;;;;14.00;2.80;;;;;;;34.69;31.73;100651.13;2085812;28;20056;-71
2022/06/03 07:20:07;;;;;;;11.05;3.00;;;;;;;34.96;31.30;100661.59;2087830;28;20452;-71
2022/06/03 07:21:55;;;;;;;13.23;3.60;;;;;;;34.98;31.39;100665.09;2092601;28;20761;-72
2022/06/03 07:23:27;;;;;;;15.07;3.00;;;;;;;34.68;31.40;100663.09;2090708;28;20060;-73
2022/06/03 07:24:59;;;;;;;10.75;3.08;;;;;;;34.45;31.36;100661.50;2092586;28;20040;-72
2022/06/03 07:26:35;;;;;;;18.10;2.88;;;;;;;34.29;31.74;100661.91;2096144;28;20067;-72
2022/06/03 07:28:03;;;;;;;12.80;3.30;;;;;;;34.22;31.98;100667.06;2099877;28;20101;-73
2022/06/03 07:29:39;;;;;;;13.75;3.22;;;;;;;34.17;31.78;100661.06;2096547;28;20068;-72
2022/06/03 07:31:13;;;;;;;13.18;3.45;;;;;;;34.12;31.87;100656.97;2091287;28;20170;-71
2022/06/03 07:32:43;;;;;;;10.68;2.92;;;;;;;34.01;32.10;100663.34;2094438;28;20049;-72
2022/06/03 07:34:16;;;;;;;8.32;2.42;;;;;;;34.08;32.13;100663.69;2090190;28;20067;-72
2022/06/03 07:35:45;;;;;;;12.77;2.90;;;;;;;34.10;31.97;100664.44;2084966;28;20556;-72
2022/06/03 07:37:13;;;;;;;10.35;2.97;;;;;;;34.12;31.79;100671.56;2094603;28;20607;-72
2022/06/03 07:38:51;;;;;;;9.52;2.75;;;;;;;34.16;31.71;100661.19;2089490;28;20075;-71
2022/06/03 07:40:23;;;;;;;13.75;3.13;;;;;;;34.13;32.11;100672.44;2079943;28;20060;-72
2022/06/03 07:41:48;;;;;;;14.70;2.75;;;;;;;34.20;31.91;100671.75;2085520;28;20029;-72
2022/06/03 07:43:22;;;;;;;9.93;2.95;;;;;;;34.01;31.97;100674.31;2083912;28;20590;-72
2022/06/03 07:44:56;;;;;;;13.15;2.90;;;;;;;34.07;32.38;100672.94;2102832;28;20036;-72
2022/06/03 07:46:24;;;;;;;9.52;2.72;;;;;;;34.12;32.06;100678.91;2095108;28;20052;-72
2022/06/03 07:47:47;;;;;;;13.40;2.53;;;;;;;34.05;32.17;100672.19;2093791;28;20461;-72
2022/06/03 07:49:10;;;;;;;9.77;2.78;;;;;;;34.11;32.31;100685.38;2101227;28;20072;-72
2022/06/03 07:50:38;;;;;;;8.70;2.60;;;;;;;34.30;31.97;100682.84;2103923;28;20131;-72
2022/06/03 07:52:07;;;;;;;12.05;3.42;;;;;;;34.32;31.83;100684.47;2103927;28;20090;-72
2022/06/03 07:53:41;;;;;;;7.90;2.95;;;;;;;34.25;32.00;100688.75;2095122;28;20126;-72
2022/06/03 07:55:09;;;;;;;13.98;3.72;;;;;;;34.19;32.25;100681.00;2101346;28;20067;-72
2022/06/03 07:56:35;;;;;;;12.77;4.70;;;;;;;34.32;32.69;100683.59;2095970;28;20071;-72
2022/06/03 07:58:05;;;;;;;16.00;3.72;;;;;;;34.51;32.56;100683.78;2101883;28;20048;-72
2022/06/03 07:59:32;;;;;;;10.85;2.75;;;;;;;34.68;32.39;100679.56;2096047;28;20049;-72
2022/06/03 08:00:56;;;;;;;9.38;2.83;;;;;;;34.74;32.47;100684.53;2102197;28;20067;-73
2022/06/03 08:02:21;;;;;;;12.95;2.97;;;;;;;34.66;32.83;100690.66;2103653;28;20167;-72
2022/06/03 08:03:45;;;;;;;14.02;3.50;;;;;;;34.74;32.89;100690.03;2089570;28;20052;-72
2022/06/03 08:05:12;;;;;;;14.43;3.95;;;;;;;34.90;32.77;100684.09;2093214;28;20084;-72
2022/06/03 08:11:46;;;;;;;12.65;2.90;;;;;;;34.85;32.99;100700.97;2097876;28;20040;-73
2022/06/03 08:13:09;;;;;;;11.20;3.38;;;;;;;34.70;33.08;100697.66;2081632;28;20144;-72
2022/06/03 08:14:32;;;;;;;14.60;3.70;;;;;;;34.68;33.05;100685.91;2084548;28;20072;-72
2022/06/03 08:16:00;;;;;;;13.35;3.15;;;;;;;34.71;32.60;100704.03;2078809;28;20099;-72